sensor_id;sensor_type;location;lat;lon;timestamp;pressure;altitude;pressure_sealevel;temperature;humidity
29121;BME280;16191;49.548;8.658;2023-08-08T00:00:33;100456.97;;;14.78;100.00
29121;BME280;16191;49.548;8.658;2023-08-08T00:03:00;100460.44;;;14.79;100.00
29121;BME280;16191;49.548;8.658;2023-08-08T00:05:27;100459.19;;;14.70;100.00
29121;BME280;16191;49.548;8.658;2023-08-08T00:07:54;100467.72;;;14.73;100.00
29121;BME280;16191;49.548;8.658;2023-08-08T00:10:21;100477.59;;;14.70;100.00
29121;BME280;16191;49.548;8.658;2023-08-08T00:12:47;100468.00;;;14.69;100.00
29121;BME280;16191;49.548;8.658;2023-08-08T00:15:14;100473.41;;;14.66;100.00
29121;BME280;16191;49.548;8.658;2023-08-08T00:17:40;100463.31;;;14.58;100.00
29121;BME280;16191;49.548;8.658;2023-08-08T00:20:08;100466.88;;;14.57;100.00
29121;BME280;16191;49.548;8.658;2023-08-08T00:22:34;100463.41;;;14.57;100.00
29121;BME280;16191;49.548;8.658;2023-08-08T00:25:01;100456.28;;;14.59;100.00
29121;BME280;16191;49.548;8.658;2023-08-08T00:27:28;100460.16;;;14.52;100.00
29121;BME280;16191;49.548;8.658;2023-08-08T00:29:55;100456.19;;;14.45;100.00
29121;BME280;16191;49.548;8.658;2023-08-08T00:32:22;100452.47;;;14.49;100.00
29121;BME280;16191;49.548;8.658;2023-08-08T00:34:48;100445.53;;;14.48;100.00
29121;BME280;16191;49.548;8.658;2023-08-08T00:37:16;100449.84;;;14.49;100.00
29121;BME280;16191;49.548;8.658;2023-08-08T00:39:43;100442.28;;;14.43;100.00
29121;BME280;16191;49.548;8.658;2023-08-08T00:42:12;100437.25;;;14.38;100.00
29121;BME280;16191;49.548;8.658;2023-08-08T00:44:39;100437.31;;;14.36;100.00
29121;BME280;16191;49.548;8.658;2023-08-08T00:47:08;100441.53;;;14.40;100.00
29121;BME280;16191;49.548;8.658;2023-08-08T00:49:35;100443.34;;;14.38;100.00
29121;BME280;16191;49.548;8.658;2023-08-08T00:52:03;100444.34;;;14.36;100.00
29121;BME280;16191;49.548;8.658;2023-08-08T00:54:31;100442.16;;;14.28;100.00
29121;BME280;16191;49.548;8.658;2023-08-08T00:56:57;100445.88;;;14.24;100.00
29121;BME280;16191;49.548;8.658;2023-08-08T00:59:24;100439.84;;;14.22;100.00
29121;BME280;16191;49.548;8.658;2023-08-08T01:01:51;100444.94;;;14.25;100.00
29121;BME280;16191;49.548;8.658;2023-08-08T01:04:17;100431.22;;;14.20;100.00
29121;BME280;16191;49.548;8.658;2023-08-08T01:09:45;100433.44;;;14.11;100.00
29121;BME280;16191;49.548;8.658;2023-08-08T01:12:16;100433.44;;;14.11;100.00
29121;BME280;16191;49.548;8.658;2023-08-08T01:15:06;100436.00;;;14.12;100.00
29121;BME280;16191;49.548;8.658;2023-08-08T01:17:55;100435.22;;;14.10;100.00
29121;BME280;16191;49.548;8.658;2023-08-08T01:20:43;100446.56;;;14.11;100.00
29121;BME280;16191;49.548;8.658;2023-08-08T01:23:44;100450.19;;;14.08;100.00
29121;BME280;16191;49.548;8.658;2023-08-08T01:26:31;100450.63;;;14.00;100.00
29121;BME280;16191;49.548;8.658;2023-08-08T01:29:18;100438.88;;;13.90;100.00
29121;BME280;16191;49.548;8.658;2023-08-08T01:31:45;100442.91;;;13.80;100.00
29121;BME280;16191;49.548;8.658;2023-08-08T01:34:12;100442.06;;;13.80;100.00
29121;BME280;16191;49.548;8.658;2023-08-08T01:36:57;100428.56;;;13.70;100.00
29121;BME280;16191;49.548;8.658;2023-08-08T01:39:27;100430.03;;;13.58;100.00
29121;BME280;16191;49.548;8.658;2023-08-08T01:41:58;100443.09;;;13.60;100.00
29121;BME280;16191;49.548;8.658;2023-08-08T01:44:26;100443.31;;;13.55;100.00
29121;BME280;16191;49.548;8.658;2023-08-08T01:46:53;100443.75;;;13.46;100.00
29121;BME280;16191;49.548;8.658;2023-08-08T01:49:20;100451.88;;;13.42;100.00
29121;BME280;16191;49.548;8.658;2023-08-08T01:51:47;100444.22;;;13.37;100.00
29121;BME280;16191;49.548;8.658;2023-08-08T01:54:15;100444.94;;;13.41;100.00
29121;BME280;16191;49.548;8.658;2023-08-08T01:56:41;100449.69;;;13.32;100.00
29121;BME280;16191;49.548;8.658;2023-08-08T01:59:08;100442.81;;;13.30;100.00
29121;BME280;16191;49.548;8.658;2023-08-08T02:01:35;100444.66;;;13.28;100.00
29121;BME280;16191;49.548;8.658;2023-08-08T02:04:02;100444.88;;;13.23;100.00
29121;BME280;16191;49.548;8.658;2023-08-08T02:06:29;100440.91;;;13.15;100.00
29121;BME280;16191;49.548;8.658;2023-08-08T02:08:57;100440.81;;;13.18;100.00
29121;BME280;16191;49.548;8.658;2023-08-08T02:11:24;100437.81;;;13.07;100.00
29121;BME280;16191;49.548;8.658;2023-08-08T02:13:52;100436.38;;;12.99;100.00
29121;BME280;16191;49.548;8.658;2023-08-08T02:16:19;100435.56;;;12.99;100.00
29121;BME280;16191;49.548;8.658;2023-08-08T02:18:46;100435.78;;;12.94;100.00
29121;BME280;16191;49.548;8.658;2023-08-08T02:21:12;100446.13;;;12.97;100.00
29121;BME280;16191;49.548;8.658;2023-08-08T02:23:39;100434.38;;;12.87;100.00
29121;BME280;16191;49.548;8.658;2023-08-08T02:26:05;100428.28;;;12.87;100.00
29121;BME280;16191;49.548;8.658;2023-08-08T02:28:32;100427.50;;;12.85;100.00
29121;BME280;16191;49.548;8.658;2023-08-08T02:30:59;100435.50;;;12.82;100.00
29121;BME280;16191;49.548;8.658;2023-08-08T02:33:26;100431.03;;;12.84;100.00
29121;BME280;16191;49.548;8.658;2023-08-08T02:35:52;100434.50;;;12.84;100.00
29121;BME280;16191;49.548;8.658;2023-08-08T02:38:19;100427.50;;;12.85;100.00
29121;BME280;16191;49.548;8.658;2023-08-08T02:40:45;100425.72;;;12.85;100.00
29121;BME280;16191;49.548;8.658;2023-08-08T02:43:12;100432.94;;;12.80;100.00
29121;BME280;16191;49.548;8.658;2023-08-08T02:45:39;100430.41;;;12.79;100.00
29121;BME280;16191;49.548;8.658;2023-08-08T02:48:06;100434.88;;;12.77;100.00
29121;BME280;16191;49.548;8.658;2023-08-08T02:50:33;100431.50;;;12.75;100.00
29121;BME280;16191;49.548;8.658;2023-08-08T02:53:00;100435.22;;;12.69;100.00
29121;BME280;16191;49.548;8.658;2023-08-08T02:55:33;100432.53;;;12.70;100.00
29121;BME280;16191;49.548;8.658;2023-08-08T02:57:59;100424.13;;;12.64;100.00
29121;BME280;16191;49.548;8.658;2023-08-08T03:00:26;100426.53;;;12.68;100.00
29121;BME280;16191;49.548;8.658;2023-08-08T03:02:53;100423.06;;;12.68;100.00
29121;BME280;16191;49.548;8.658;2023-08-08T03:05:20;100422.91;;;12.71;100.00
29121;BME280;16191;49.548;8.658;2023-08-08T03:07:48;100422.00;;;12.72;100.00
29121;BME280;16191;49.548;8.658;2023-08-08T03:10:14;100424.47;;;12.75;100.00
29121;BME280;16191;49.548;8.658;2023-08-08T03:12:42;100419.38;;;12.72;100.00
29121;BME280;16191;49.548;8.658;2023-08-08T03:15:09;100422.84;;;12.73;100.00
29121;BME280;16191;49.548;8.658;2023-08-08T03:17:38;100417.69;;;12.71;100.00
29121;BME280;16191;49.548;8.658;2023-08-08T03:20:05;100422.00;;;12.72;100.00
29121;BME280;16191;49.548;8.658;2023-08-08T03:22:33;100413.00;;;12.78;100.00
29121;BME280;16191;49.548;8.658;2023-08-08T03:25:00;100406.94;;;12.77;100.00
29121;BME280;16191;49.548;8.658;2023-08-08T03:27:27;100413.84;;;12.78;100.00
29121;BME280;16191;49.548;8.658;2023-08-08T03:29:54;100412.84;;;12.81;100.00
29121;BME280;16191;49.548;8.658;2023-08-08T03:32:22;100421.41;;;12.84;100.00
29121;BME280;16191;49.548;8.658;2023-08-08T03:34:48;100416.38;;;12.80;100.00
29121;BME280;16191;49.548;8.658;2023-08-08T03:37:15;100423.56;;;12.76;100.00
29121;BME280;16191;49.548;8.658;2023-08-08T03:39:42;100424.41;;;12.77;100.00
29121;BME280;16191;49.548;8.658;2023-08-08T03:42:09;100424.31;;;12.78;100.00
29121;BME280;16191;49.548;8.658;2023-08-08T03:44:36;100428.94;;;12.73;100.00
29121;BME280;16191;49.548;8.658;2023-08-08T03:47:02;100430.78;;;12.71;100.00
29121;BME280;16191;49.548;8.658;2023-08-08T03:49:44;100421.09;;;12.73;100.00
29121;BME280;16191;49.548;8.658;2023-08-08T03:52:11;100419.31;;;12.74;100.00
29121;BME280;16191;49.548;8.658;2023-08-08T03:54:38;100421.00;;;12.75;100.00
29121;BME280;16191;49.548;8.658;2023-08-08T03:57:05;100421.88;;;12.75;100.00
29121;BME280;16191;49.548;8.658;2023-08-08T03:59:32;100422.84;;;12.73;100.00
29121;BME280;16191;49.548;8.658;2023-08-08T04:01:58;100423.78;;;12.72;100.00
29121;BME280;16191;49.548;8.658;2023-08-08T04:04:26;100420.31;;;12.71;100.00
29121;BME280;16191;49.548;8.658;2023-08-08T04:06:52;100418.16;;;12.60;100.00
29121;BME280;16191;49.548;8.658;2023-08-08T04:09:19;100426.59;;;12.67;100.00
29121;BME280;16191;49.548;8.658;2023-08-08T04:11:46;100429.22;;;12.67;100.00
29121;BME280;16191;49.548;8.658;2023-08-08T04:14:12;100427.16;;;12.74;100.00
29121;BME280;16191;49.548;8.658;2023-08-08T04:16:39;100427.09;;;12.75;100.00
29121;BME280;16191;49.548;8.658;2023-08-08T04:19:06;100423.84;;;12.70;100.00
29121;BME280;16191;49.548;8.658;2023-08-08T04:21:32;100429.66;;;12.77;100.00
29121;BME280;16191;49.548;8.658;2023-08-08T04:23:59;100430.31;;;12.80;100.00
29121;BME280;16191;49.548;8.658;2023-08-08T04:26:26;100425.41;;;12.74;100.00
29121;BME280;16191;49.548;8.658;2023-08-08T04:28:53;100424.75;;;12.69;100.00
29121;BME280;16191;49.548;8.658;2023-08-08T04:31:20;100435.22;;;12.69;100.00
29121;BME280;16191;49.548;8.658;2023-08-08T04:33:46;100432.75;;;12.66;100.00
29121;BME280;16191;49.548;8.658;2023-08-08T04:36:13;100424.75;;;12.69;100.00
29121;BME280;16191;49.548;8.658;2023-08-08T04:38:39;100424.75;;;12.69;100.00
29121;BME280;16191;49.548;8.658;2023-08-08T04:41:06;100430.19;;;12.64;100.00
29121;BME280;16191;49.548;8.658;2023-08-08T04:43:32;100430.97;;;12.66;100.00
29121;BME280;16191;49.548;8.658;2023-08-08T04:45:59;100427.25;;;12.72;100.00
29121;BME280;16191;49.548;8.658;2023-08-08T04:48:26;100426.53;;;12.68;100.00
29121;BME280;16191;49.548;8.658;2023-08-08T04:50:52;100426.31;;;12.73;100.00
29121;BME280;16191;49.548;8.658;2023-08-08T04:53:19;100433.25;;;12.74;100.00
29121;BME280;16191;49.548;8.658;2023-08-08T04:55:45;100433.19;;;12.76;100.00
29121;BME280;16191;49.548;8.658;2023-08-08T04:58:12;100432.34;;;12.75;100.00
29121;BME280;16191;49.548;8.658;2023-08-08T05:00:38;100431.50;;;12.75;100.00
29121;BME280;16191;49.548;8.658;2023-08-08T05:03:05;100436.47;;;12.79;100.00
29121;BME280;16191;49.548;8.658;2023-08-08T05:05:32;100435.56;;;12.80;100.00
29121;BME280;16191;49.548;8.658;2023-08-08T05:07:59;100436.47;;;12.79;100.00
29121;BME280;16191;49.548;8.658;2023-08-08T05:10:25;100427.56;;;12.83;100.00
29121;BME280;16191;49.548;8.658;2023-08-08T05:12:52;100424.94;;;12.83;100.00
29121;BME280;16191;49.548;8.658;2023-08-08T05:15:18;100426.50;;;12.87;100.00
29121;BME280;16191;49.548;8.658;2023-08-08T05:17:45;100429.47;;;12.98;100.00
29121;BME280;16191;49.548;8.658;2023-08-08T05:20:12;100425.31;;;12.94;100.00
29121;BME280;16191;49.548;8.658;2023-08-08T05:22:38;100420.59;;;13.01;100.00
29121;BME280;16191;49.548;8.658;2023-08-08T05:25:05;100423.00;;;13.05;100.00
29121;BME280;16191;49.548;8.658;2023-08-08T05:27:32;100426.13;;;13.14;100.00
29121;BME280;16191;49.548;8.658;2023-08-08T05:29:59;100424.22;;;13.17;100.00
29121;BME280;16191;49.548;8.658;2023-08-08T05:32:25;100425.94;;;13.18;100.00
29121;BME280;16191;49.548;8.658;2023-08-08T05:34:52;100422.84;;;13.27;100.00
29121;BME280;16191;49.548;8.658;2023-08-08T05:37:18;100420.06;;;13.30;100.00
29121;BME280;16191;49.548;8.658;2023-08-08T05:39:45;100425.94;;;13.35;100.00
29121;BME280;16191;49.548;8.658;2023-08-08T05:42:11;100422.69;;;13.30;100.00
29121;BME280;16191;49.548;8.658;2023-08-08T05:44:38;100422.00;;;13.44;100.00
29121;BME280;16191;49.548;8.658;2023-08-08T05:47:05;100426.25;;;13.47;100.00
29121;BME280;16191;49.548;8.658;2023-08-08T05:49:32;100427.56;;;13.55;100.00
29121;BME280;16191;49.548;8.658;2023-08-08T05:51:58;100418.63;;;13.59;100.00
29121;BME280;16191;49.548;8.658;2023-08-08T05:54:26;100421.84;;;13.64;100.00
29121;BME280;16191;49.548;8.658;2023-08-08T05:56:52;100426.09;;;13.67;100.00
29121;BME280;16191;49.548;8.658;2023-08-08T05:59:19;100420.63;;;13.71;100.00
29121;BME280;16191;49.548;8.658;2023-08-08T06:01:46;100421.25;;;13.77;100.00
29121;BME280;16191;49.548;8.658;2023-08-08T06:04:13;100424.47;;;13.82;100.00
29121;BME280;16191;49.548;8.658;2023-08-08T06:06:40;100424.34;;;13.85;100.00
29121;BME280;16191;49.548;8.658;2023-08-08T06:09:07;100431.44;;;13.83;100.00
29121;BME280;16191;49.548;8.658;2023-08-08T06:11:35;100427.09;;;13.82;100.00
29121;BME280;16191;49.548;8.658;2023-08-08T06:14:01;100422.91;;;13.95;100.00
29121;BME280;16191;49.548;8.658;2023-08-08T06:16:28;100426.22;;;13.98;100.00
29121;BME280;16191;49.548;8.658;2023-08-08T06:18:56;100426.94;;;14.02;100.00
29121;BME280;16191;49.548;8.658;2023-08-08T06:21:22;100427.53;;;14.07;100.00
29121;BME280;16191;49.548;8.658;2023-08-08T06:23:49;100429.50;;;14.19;100.00
29121;BME280;16191;49.548;8.658;2023-08-08T06:26:16;100426.66;;;14.24;100.00
29121;BME280;16191;49.548;8.658;2023-08-08T06:28:43;100425.63;;;14.26;100.00
29121;BME280;16191;49.548;8.658;2023-08-08T06:31:09;100432.41;;;14.30;100.00
29121;BME280;16191;49.548;8.658;2023-08-08T06:33:36;100427.34;;;14.27;100.00
29121;BME280;16191;49.548;8.658;2023-08-08T06:36:02;100426.41;;;14.28;100.00
29121;BME280;16191;49.548;8.658;2023-08-08T06:38:29;100432.75;;;14.40;100.00
29121;BME280;16191;49.548;8.658;2023-08-08T06:41:01;100428.41;;;14.40;100.00
29121;BME280;16191;49.548;8.658;2023-08-08T06:43:29;100423.75;;;14.46;100.00
29121;BME280;16191;49.548;8.658;2023-08-08T06:45:56;100423.69;;;14.47;100.00
29121;BME280;16191;49.548;8.658;2023-08-08T06:48:23;100424.94;;;14.56;100.00
29121;BME280;16191;49.548;8.658;2023-08-08T06:50:50;100432.56;;;14.60;100.00
29121;BME280;16191;49.548;8.658;2023-08-08T06:53:17;100423.50;;;14.66;100.00
29121;BME280;16191;49.548;8.658;2023-08-08T06:55:44;100424.53;;;14.63;100.00
29121;BME280;16191;49.548;8.658;2023-08-08T06:58:10;100421.28;;;14.74;100.00
29121;BME280;16191;49.548;8.658;2023-08-08T07:00:37;100431.75;;;14.91;100.00
29121;BME280;16191;49.548;8.658;2023-08-08T07:03:04;100423.34;;;14.69;100.00
29121;BME280;16191;49.548;8.658;2023-08-08T07:05:31;100423.19;;;14.72;100.00
29121;BME280;16191;49.548;8.658;2023-08-08T07:07:57;100421.41;;;14.88;100.00
29121;BME280;16191;49.548;8.658;2023-08-08T07:10:24;100412.50;;;14.91;100.00
29121;BME280;16191;49.548;8.658;2023-08-08T07:12:51;100420.25;;;15.24;100.00
29121;BME280;16191;49.548;8.658;2023-08-08T07:15:18;100413.88;;;15.28;100.00
29121;BME280;16191;49.548;8.658;2023-08-08T07:17:45;100413.72;;;15.31;100.00
29121;BME280;16191;49.548;8.658;2023-08-08T07:20:11;100410.91;;;15.18;100.00
29121;BME280;16191;49.548;8.658;2023-08-08T07:22:40;100412.22;;;15.57;100.00
29121;BME280;16191;49.548;8.658;2023-08-08T07:25:07;100420.81;;;15.74;100.00
29121;BME280;16191;49.548;8.658;2023-08-08T07:27:34;100424.19;;;15.76;100.00
29121;BME280;16191;49.548;8.658;2023-08-08T07:30:01;100413.69;;;15.91;100.00
29121;BME280;16191;49.548;8.658;2023-08-08T07:32:28;100412.22;;;16.01;100.00
29121;BME280;16191;49.548;8.658;2023-08-08T07:34:58;100414.72;;;15.88;100.00
29121;BME280;16191;49.548;8.658;2023-08-08T07:37:27;100414.34;;;16.08;100.00
29121;BME280;16191;49.548;8.658;2023-08-08T07:39:54;100409.47;;;16.31;100.00
29121;BME280;16191;49.548;8.658;2023-08-08T07:42:21;100394.13;;;16.52;100.00
29121;BME280;16191;49.548;8.658;2023-08-08T07:44:48;100403.13;;;16.76;100.00
29121;BME280;16191;49.548;8.658;2023-08-08T07:47:14;100400.59;;;16.60;100.00
29121;BME280;16191;49.548;8.658;2023-08-08T07:49:41;100397.72;;;16.65;100.00
29121;BME280;16191;49.548;8.658;2023-08-08T07:52:07;100391.38;;;16.53;100.00
29121;BME280;16191;49.548;8.658;2023-08-08T07:54:34;100400.31;;;16.79;100.00
29121;BME280;16191;49.548;8.658;2023-08-08T07:57:01;100399.16;;;16.83;100.00
29121;BME280;16191;49.548;8.658;2023-08-08T07:59:28;100390.03;;;16.89;100.00
29121;BME280;16191;49.548;8.658;2023-08-08T08:01:54;100391.66;;;17.04;100.00
29121;BME280;16191;49.548;8.658;2023-08-08T08:04:21;100386.50;;;17.02;100.00
29121;BME280;16191;49.548;8.658;2023-08-08T08:06:47;100385.28;;;17.21;100.00
29121;BME280;16191;49.548;8.658;2023-08-08T08:09:14;100385.00;;;17.38;100.00
29121;BME280;16191;49.548;8.658;2023-08-08T08:11:41;100385.09;;;17.36;93.24
29121;BME280;16191;49.548;8.658;2023-08-08T08:14:07;100392.78;;;17.27;87.32
29121;BME280;16191;49.548;8.658;2023-08-08T08:16:34;100394.50;;;17.40;92.05
29121;BME280;16191;49.548;8.658;2023-08-08T08:19:01;100407.72;;;17.53;93.20
29121;BME280;16191;49.548;8.658;2023-08-08T08:21:27;100391.47;;;17.46;93.17
29121;BME280;16191;49.548;8.658;2023-08-08T08:23:54;100400.13;;;17.48;93.99
29121;BME280;16191;49.548;8.658;2023-08-08T08:26:21;100400.41;;;17.44;93.90
29121;BME280;16191;49.548;8.658;2023-08-08T08:28:47;100392.09;;;17.50;93.75
29121;BME280;16191;49.548;8.658;2023-08-08T08:31:14;100392.22;;;17.48;88.65
29121;BME280;16191;49.548;8.658;2023-08-08T08:33:41;100385.84;;;17.38;82.99
29121;BME280;16191;49.548;8.658;2023-08-08T08:36:07;100391.25;;;17.50;84.06
29121;BME280;16191;49.548;8.658;2023-08-08T08:38:34;100392.03;;;17.64;83.02
29121;BME280;16191;49.548;8.658;2023-08-08T08:41:02;100388.91;;;17.72;80.61
29121;BME280;16191;49.548;8.658;2023-08-08T08:43:30;100393.97;;;17.88;80.21
29121;BME280;16191;49.548;8.658;2023-08-08T08:46:00;100395.84;;;17.86;79.77
29121;BME280;16191;49.548;8.658;2023-08-08T08:48:28;100387.84;;;17.87;79.40
29121;BME280;16191;49.548;8.658;2023-08-08T08:50:54;100386.25;;;17.85;78.80
29121;BME280;16191;49.548;8.658;2023-08-08T08:53:22;100392.50;;;17.96;72.92
29121;BME280;16191;49.548;8.658;2023-08-08T08:55:50;100389.63;;;17.99;74.39
29121;BME280;16191;49.548;8.658;2023-08-08T08:58:17;100385.72;;;18.18;76.33
29121;BME280;16191;49.548;8.658;2023-08-08T09:00:46;100376.91;;;18.30;76.07
29121;BME280;16191;49.548;8.658;2023-08-08T09:03:13;100369.53;;;18.22;73.06
29121;BME280;16191;49.548;8.658;2023-08-08T09:05:41;100378.41;;;18.21;74.37
29121;BME280;16191;49.548;8.658;2023-08-08T09:08:08;100390.34;;;18.27;73.86
29121;BME280;16191;49.548;8.658;2023-08-08T09:10:35;100371.63;;;18.30;73.28
29121;BME280;16191;49.548;8.658;2023-08-08T09:13:02;100377.59;;;18.57;72.18
29121;BME280;16191;49.548;8.658;2023-08-08T09:15:32;100371.28;;;18.47;70.76
29121;BME280;16191;49.548;8.658;2023-08-08T09:18:00;100367.81;;;18.59;70.53
29121;BME280;16191;49.548;8.658;2023-08-08T09:20:27;100362.69;;;18.69;69.91
29121;BME280;16191;49.548;8.658;2023-08-08T09:22:55;100360.56;;;18.74;68.66
29121;BME280;16191;49.548;8.658;2023-08-08T09:25:22;100357.72;;;18.88;68.13
29121;BME280;16191;49.548;8.658;2023-08-08T09:27:51;100357.06;;;19.32;68.12
29121;BME280;16191;49.548;8.658;2023-08-08T09:30:20;100349.00;;;19.58;67.35
29121;BME280;16191;49.548;8.658;2023-08-08T09:32:47;100347.00;;;19.83;62.63
29121;BME280;16191;49.548;8.658;2023-08-08T09:35:15;100348.78;;;19.94;62.00
29121;BME280;16191;49.548;8.658;2023-08-08T09:37:41;100350.13;;;19.89;62.24
29121;BME280;16191;49.548;8.658;2023-08-08T09:40:08;100357.47;;;19.85;60.40
29121;BME280;16191;49.548;8.658;2023-08-08T09:42:39;100340.13;;;20.26;58.66
29121;BME280;16191;49.548;8.658;2023-08-08T09:45:08;100337.63;;;20.13;55.56
29121;BME280;16191;49.548;8.658;2023-08-08T09:47:35;100339.63;;;20.32;53.74
29121;BME280;16191;49.548;8.658;2023-08-08T09:50:03;100335.66;;;20.26;51.40
29121;BME280;16191;49.548;8.658;2023-08-08T09:52:34;100342.28;;;20.32;51.95
29121;BME280;16191;49.548;8.658;2023-08-08T09:55:01;100345.06;;;20.41;51.72
29121;BME280;16191;49.548;8.658;2023-08-08T09:57:29;100344.75;;;21.10;51.00
29121;BME280;16191;49.548;8.658;2023-08-08T09:59:57;100338.97;;;20.73;49.94
29121;BME280;16191;49.548;8.658;2023-08-08T10:02:23;100343.25;;;20.96;50.03
29121;BME280;16191;49.548;8.658;2023-08-08T10:04:52;100336.34;;;20.73;50.38
29121;BME280;16191;49.548;8.658;2023-08-08T10:07:19;100343.06;;;20.77;48.52
29121;BME280;16191;49.548;8.658;2023-08-08T10:09:45;100354.69;;;20.97;48.11
29121;BME280;16191;49.548;8.658;2023-08-08T10:12:12;100338.38;;;21.01;48.65
29121;BME280;16191;49.548;8.658;2023-08-08T10:14:42;100338.97;;;21.05;48.20
29121;BME280;16191;49.548;8.658;2023-08-08T10:17:13;100339.88;;;20.94;48.04
29121;BME280;16191;49.548;8.658;2023-08-08T10:19:53;100343.25;;;21.28;47.96
29121;BME280;16191;49.548;8.658;2023-08-08T10:22:22;100337.97;;;21.17;47.77
29121;BME280;16191;49.548;8.658;2023-08-08T10:24:54;100338.25;;;21.03;47.90
29121;BME280;16191;49.548;8.658;2023-08-08T10:27:31;100338.09;;;20.83;48.23
29121;BME280;16191;49.548;8.658;2023-08-08T10:30:06;100333.97;;;21.23;47.87
29121;BME280;16191;49.548;8.658;2023-08-08T10:32:45;100343.19;;;21.39;48.83
29121;BME280;16191;49.548;8.658;2023-08-08T10:35:15;100337.09;;;21.28;48.71
29121;BME280;16191;49.548;8.658;2023-08-08T10:37:52;100322.13;;;21.47;47.48
29121;BME280;16191;49.548;8.658;2023-08-08T10:40:20;100326.34;;;21.50;48.88
29121;BME280;16191;49.548;8.658;2023-08-08T10:42:47;100324.78;;;21.47;48.86
29121;BME280;16191;49.548;8.658;2023-08-08T10:45:15;100319.00;;;22.14;47.27
29121;BME280;16191;49.548;8.658;2023-08-08T10:47:43;100328.31;;;21.78;47.31
29121;BME280;16191;49.548;8.658;2023-08-08T10:50:14;100324.81;;;21.78;48.20
29121;BME280;16191;49.548;8.658;2023-08-08T10:55:36;100305.94;;;22.02;48.80
29121;BME280;16191;49.548;8.658;2023-08-08T10:58:12;100319.63;;;22.28;49.07
29121;BME280;16191;49.548;8.658;2023-08-08T11:00:41;100321.97;;;21.39;48.13
29121;BME280;16191;49.548;8.658;2023-08-08T11:03:09;100310.72;;;21.77;47.72
29121;BME280;16191;49.548;8.658;2023-08-08T11:05:37;100311.38;;;21.49;48.25
29121;BME280;16191;49.548;8.658;2023-08-08T11:08:06;100316.72;;;21.79;49.00
29121;BME280;16191;49.548;8.658;2023-08-08T11:10:38;100310.38;;;21.71;47.59
29121;BME280;16191;49.548;8.658;2023-08-08T11:13:06;100313.88;;;21.71;46.31
29121;BME280;16191;49.548;8.658;2023-08-08T11:15:34;100313.75;;;21.42;46.75
29121;BME280;16191;49.548;8.658;2023-08-08T11:18:02;100305.75;;;21.63;46.43
29121;BME280;16191;49.548;8.658;2023-08-08T11:20:32;100300.41;;;21.84;47.42
29121;BME280;16191;49.548;8.658;2023-08-08T11:23:00;100306.44;;;21.96;47.14
29121;BME280;16191;49.548;8.658;2023-08-08T11:25:28;100305.06;;;21.71;46.62
29121;BME280;16191;49.548;8.658;2023-08-08T11:27:57;100305.22;;;22.00;45.54
29121;BME280;16191;49.548;8.658;2023-08-08T11:30:33;100294.81;;;22.17;45.44
29121;BME280;16191;49.548;8.658;2023-08-08T11:33:01;100303.06;;;21.94;44.84
29121;BME280;16191;49.548;8.658;2023-08-08T11:35:31;100302.63;;;22.78;44.65
29121;BME280;16191;49.548;8.658;2023-08-08T11:37:58;100302.50;;;22.89;43.30
29121;BME280;16191;49.548;8.658;2023-08-08T11:40:26;100297.41;;;22.57;43.13
29121;BME280;16191;49.548;8.658;2023-08-08T11:42:55;100306.38;;;22.66;43.91
29121;BME280;16191;49.548;8.658;2023-08-08T11:45:23;100311.69;;;22.47;44.55
29121;BME280;16191;49.548;8.658;2023-08-08T11:47:52;100299.19;;;22.28;44.04
29121;BME280;16191;49.548;8.658;2023-08-08T11:50:21;100302.44;;;22.51;44.56
29121;BME280;16191;49.548;8.658;2023-08-08T11:52:54;100293.25;;;22.84;43.44
29121;BME280;16191;49.548;8.658;2023-08-08T11:55:27;100298.56;;;23.03;43.60
29121;BME280;16191;49.548;8.658;2023-08-08T11:57:55;100295.16;;;22.53;43.24
29121;BME280;16191;49.548;8.658;2023-08-08T12:00:27;100287.97;;;22.34;43.42
29121;BME280;16191;49.548;8.658;2023-08-08T12:02:55;100287.56;;;22.29;44.15
29121;BME280;16191;49.548;8.658;2023-08-08T12:05:23;100287.06;;;22.64;42.50
29121;BME280;16191;49.548;8.658;2023-08-08T12:07:51;100287.75;;;22.47;41.61
29121;BME280;16191;49.548;8.658;2023-08-08T12:10:20;100289.44;;;22.48;41.12
29121;BME280;16191;49.548;8.658;2023-08-08T12:12:53;100278.19;;;22.35;41.90
29121;BME280;16191;49.548;8.658;2023-08-08T12:15:20;100281.59;;;22.46;42.17
29121;BME280;16191;49.548;8.658;2023-08-08T12:17:47;100279.94;;;22.65;42.29
29121;BME280;16191;49.548;8.658;2023-08-08T12:20:14;100282.63;;;22.84;42.20
29121;BME280;16191;49.548;8.658;2023-08-08T12:22:41;100284.00;;;22.78;42.80
29121;BME280;16191;49.548;8.658;2023-08-08T12:25:08;100271.88;;;23.51;42.02
29121;BME280;16191;49.548;8.658;2023-08-08T12:27:35;100277.19;;;23.51;41.42
29121;BME280;16191;49.548;8.658;2023-08-08T12:30:02;100286.41;;;22.91;41.28
29121;BME280;16191;49.548;8.658;2023-08-08T12:32:28;100294.31;;;22.52;42.18
29121;BME280;16191;49.548;8.658;2023-08-08T12:34:58;100282.72;;;22.63;41.63
29121;BME280;16191;49.548;8.658;2023-08-08T12:37:25;100280.19;;;22.62;41.81
29121;BME280;16191;49.548;8.658;2023-08-08T12:39:51;100274.31;;;23.35;39.92
29121;BME280;16191;49.548;8.658;2023-08-08T12:42:18;100267.22;;;24.00;39.35
29121;BME280;16191;49.548;8.658;2023-08-08T12:44:45;100273.59;;;24.44;38.60
29121;BME280;16191;49.548;8.658;2023-08-08T12:47:13;100268.34;;;23.61;38.99
29121;BME280;16191;49.548;8.658;2023-08-08T12:49:41;100257.53;;;23.72;39.49
29121;BME280;16191;49.548;8.658;2023-08-08T12:52:08;100274.69;;;23.50;39.53